Aérodrome :
LOGIN :

S'inscrire | Disclaimer

   EN    FR    IT 

 










Légende :    VFR   VFR Marginal   IFR   IFR Intensif   IFR Très Intensif
Visi : 
Plafond : 
>= 8 km
>= 3000ft
5 à 8 km
1000 à 3000 ft
1500m à 5 km
500 à 1000 ft
800 à 1500m
200 à 500 ft
< 800m
< 200 ft
Symboles :   Orages  Brouillard  Fortes neiges  Fortes précipitations  Vent > 20 kt
SIGMETs :   Divers  Orages  Givrage  Turbulence  Onde Orograph.  Cendres Volcan.







- Altitude de l'aérodrome : 779 ft
- Code IATA : CMF
- Voir les cartes d'approche


LFLB - Chambery / Aix-Les-Bains

DERNIER METAR :
  • 161430Z AUTO 35004KT CAVOK 30/15 Q1018 NOSIG

METARs EXPIRÉS :
  • 161400Z AUTO 35004KT CAVOK 29/15 Q1018 NOSIG
  • 161330Z AUTO 34005KT CAVOK 29/16 Q1018 NOSIG
  • 161300Z AUTO 35004KT 310V020 CAVOK 29/15 Q1019 NOSIG
  • 161230Z AUTO 34004KT 310V010 CAVOK 28/15 Q1019 NOSIG
  • 161200Z AUTO 35005KT CAVOK 26/16 Q1020 NOSIG

TAF TAF LFLB
Valide du 16 à 12h jusqu'au 17 à 12h UTC


161100Z 1612/1712 36005KT CAVOK
TEMPO 1623/1706 VRB03KT
PROB30
TEMPO 1703/1706 4000 BR
Pas de NOTAMs connus pour ce terrain.



MET'MAP, la Météo Aéronautique d'un coup d'oeil ! - Copyright ORBIFLY Décembre 2007 - Disclaimer

ORBIFLY MET'MAP TEAM :

Programmation & Développement : Alexandra Zaïnal
Conception & Développement : Baudouin d'Aumeries
Co-Programmation & Développement : Marc-Olivier Méhu
Soutien technique & logistique : Manuel Goepfert

Contact : metmap@orbifly.com




SOURCES & CREDITS :

   NOAA